Time;durP1;ratioP1;P1;durP2;ratioP2;P2;SDS_P1;SDS_P2;PMS_P1;PMS_P2;Temp;Humidity;BMP_temperature;BMP_pressure;BME280_temperature;BME280_humidity;BME280_pressure;Samples;Min_cycle;Max_cycle;Signal;HPM_P1;HPM_P2
2022/12/22 03:28:07;;;;;;;10.60;8.80;;;;;;;;;;5134165;27;20034;-57
2022/12/22 03:30:33;;;;;;;11.10;8.75;;;;;;;;;;5133978;27;20122;-56
2022/12/22 03:32:59;;;;;;;11.85;9.77;;;;;;;;;;5132266;27;20122;-56
2022/12/22 03:35:25;;;;;;;14.55;10.68;;;;;;;;;;5132322;27;20086;-57
2022/12/22 03:37:51;;;;;;;16.73;11.73;;;;;;;;;;5133239;27;20046;-56
2022/12/22 03:40:17;;;;;;;17.85;13.18;;;;;;;;;;5135349;27;20460;-56
2022/12/22 03:48:13;;;;;;;17.13;11.90;;;;;;;;;;5133935;27;20086;-56
2022/12/22 03:50:39;;;;;;;18.65;12.75;;;;;;;;;;5134435;27;20083;-57
2022/12/22 03:53:05;;;;;;;16.95;12.35;;;;;;;;;;5133546;27;20120;-57
2022/12/22 03:55:31;;;;;;;15.25;11.73;;;;;;;;;;5112306;27;20062;-57
2022/12/22 03:57:57;;;;;;;14.65;11.32;;;;;;;;;;5132065;27;20035;-57
2022/12/22 04:00:23;;;;;;;11.73;9.18;;;;;;;;;;5132286;27;20514;-57
2022/12/22 04:02:49;;;;;;;14.40;10.10;;;;;;;;;;5132076;27;20039;-57
2022/12/22 04:05:15;;;;;;;11.00;8.38;;;;;;;;;;5132759;27;20062;-57
2022/12/22 04:07:41;;;;;;;8.35;7.10;;;;;;;;;;5132140;27;20047;-57
2022/12/22 04:12:55;;;;;;;7.80;6.30;;;;;;;;;;5136247;27;20043;-57
2022/12/22 04:15:23;;;;;;;8.40;6.90;;;;;;;;;;5132334;27;20050;-57
2022/12/22 04:17:49;;;;;;;8.65;7.05;;;;;;;;;;5133824;27;20977;-57
2022/12/22 04:20:15;;;;;;;9.30;6.93;;;;;;;;;;5133533;27;20126;-57
2022/12/22 04:22:41;;;;;;;8.30;5.97;;;;;;;;;;5132628;27;20059;-57
2022/12/22 04:25:07;;;;;;;6.53;5.40;;;;;;;;;;5134638;27;20086;-57
2022/12/22 04:27:33;;;;;;;6.32;5.18;;;;;;;;;;5133388;27;20046;-56
2022/12/22 04:29:59;;;;;;;5.90;4.60;;;;;;;;;;5134783;27;20043;-56
2022/12/22 04:32:25;;;;;;;6.18;5.55;;;;;;;;;;5132038;27;20039;-57
2022/12/22 04:34:51;;;;;;;6.13;5.25;;;;;;;;;;5132593;27;20412;-57
2022/12/22 04:37:17;;;;;;;6.75;5.30;;;;;;;;;;5132889;27;20035;-55
2022/12/22 04:39:43;;;;;;;6.22;5.47;;;;;;;;;;5132444;27;20073;-57
2022/12/22 04:42:09;;;;;;;7.72;6.32;;;;;;;;;;5133438;27;20043;-56
2022/12/22 04:44:35;;;;;;;7.47;6.10;;;;;;;;;;5134313;27;20446;-57
2022/12/22 04:47:01;;;;;;;7.50;5.40;;;;;;;;;;5133493;27;20474;-56
2022/12/22 04:49:27;;;;;;;9.55;6.97;;;;;;;;;;5132623;27;20074;-56
2022/12/22 04:51:53;;;;;;;10.90;8.32;;;;;;;;;;5133415;27;20524;-56
2022/12/22 04:54:19;;;;;;;8.25;7.00;;;;;;;;;;5132080;27;20050;-57
2022/12/22 04:56:45;;;;;;;10.27;7.70;;;;;;;;;;5132288;27;20567;-57
2022/12/22 04:59:11;;;;;;;7.85;6.28;;;;;;;;;;5131883;27;20126;-57
2022/12/22 05:01:37;;;;;;;7.90;6.20;;;;;;;;;;5133574;27;20043;-57
2022/12/22 05:04:03;;;;;;;9.45;7.38;;;;;;;;;;5131844;27;20540;-56
2022/12/22 05:06:29;;;;;;;10.52;8.98;;;;;;;;;;5131603;27;20047;-57
2022/12/22 05:08:55;;;;;;;10.55;7.75;;;;;;;;;;5132047;27;20053;-56
2022/12/22 05:11:21;;;;;;;7.40;6.10;;;;;;;;;;5133287;27;20122;-57
2022/12/22 05:13:47;;;;;;;8.00;6.72;;;;;;;;;;5137696;27;20796;-56
2022/12/22 05:16:14;;;;;;;6.50;5.15;;;;;;;;;;5138463;27;20042;-56
2022/12/22 05:18:40;;;;;;;7.10;5.10;;;;;;;;;;5137692;27;20125;-56
2022/12/22 05:21:09;;;;;;;6.22;5.43;;;;;;;;;;5135459;27;20043;-56
2022/12/22 05:23:35;;;;;;;6.22;5.25;;;;;;;;;;5133704;27;20056;-56
2022/12/22 05:26:01;;;;;;;7.70;5.38;;;;;;;;;;5133490;27;20043;-57
2022/12/22 05:28:27;;;;;;;9.07;6.20;;;;;;;;;;5135013;27;20486;-57
2022/12/22 05:30:53;;;;;;;6.25;5.38;;;;;;;;;;5135668;27;20050;-57
2022/12/22 05:33:20;;;;;;;6.68;5.45;;;;;;;;;;5135449;27;20038;-57
2022/12/22 05:35:46;;;;;;;6.65;4.80;;;;;;;;;;5136158;27;20043;-57
2022/12/22 05:38:12;;;;;;;6.25;5.60;;;;;;;;;;5137528;27;20043;-56
2022/12/22 05:40:38;;;;;;;8.38;6.10;;;;;;;;;;5134531;27;20043;-57
2022/12/22 05:43:04;;;;;;;7.22;6.20;;;;;;;;;;5137552;27;20038;-57
2022/12/22 05:45:30;;;;;;;7.03;5.80;;;;;;;;;;5135349;27;20055;-57
2022/12/22 05:47:56;;;;;;;7.80;6.05;;;;;;;;;;5135200;27;20043;-57
2022/12/22 05:50:24;;;;;;;8.00;6.00;;;;;;;;;;5136477;27;20408;-57
2022/12/22 05:52:50;;;;;;;9.50;6.03;;;;;;;;;;5134331;27;20941;-57
2022/12/22 05:55:16;;;;;;;7.07;5.50;;;;;;;;;;5135204;27;20126;-57
2022/12/22 05:57:42;;;;;;;6.43;4.80;;;;;;;;;;5133503;27;20493;-57
2022/12/22 06:00:11;;;;;;;7.43;5.50;;;;;;;;;;5136484;27;20047;-56
2022/12/22 06:02:37;;;;;;;6.38;4.75;;;;;;;;;;5131609;27;20043;-57
2022/12/22 06:05:03;;;;;;;6.57;5.25;;;;;;;;;;5137147;27;20503;-56
2022/12/22 06:07:29;;;;;;;7.35;4.80;;;;;;;;;;5138016;27;20463;-56
2022/12/22 06:09:55;;;;;;;8.60;6.10;;;;;;;;;;5136240;27;20062;-57
2022/12/22 06:12:22;;;;;;;11.02;7.75;;;;;;;;;;5136602;27;20137;-57
2022/12/22 06:14:48;;;;;;;11.30;7.38;;;;;;;;;;5135811;27;20480;-57
2022/12/22 06:17:14;;;;;;;11.27;6.95;;;;;;;;;;5135864;27;20041;-56
2022/12/22 06:19:40;;;;;;;10.63;7.25;;;;;;;;;;5135287;27;20090;-57
2022/12/22 06:22:06;;;;;;;7.78;6.05;;;;;;;;;;5134517;27;20074;-57
2022/12/22 06:24:32;;;;;;;8.82;6.40;;;;;;;;;;5136182;27;20042;-57
2022/12/22 06:26:58;;;;;;;10.30;7.57;;;;;;;;;;5133928;27;20039;-57
2022/12/22 06:29:25;;;;;;;14.13;9.10;;;;;;;;;;5135986;27;20041;-57
2022/12/22 06:31:50;;;;;;;14.80;9.80;;;;;;;;;;5134733;27;20039;-57
2022/12/22 06:34:17;;;;;;;14.43;9.10;;;;;;;;;;5131148;27;20092;-57
2022/12/22 06:36:44;;;;;;;17.95;11.27;;;;;;;;;;5132547;27;20078;-57
2022/12/22 06:39:10;;;;;;;18.75;11.65;;;;;;;;;;5131939;27;20062;-57
2022/12/22 06:44:21;;;;;;;18.70;11.32;;;;;;;;;;5134251;27;20078;-57
2022/12/22 06:46:47;;;;;;;19.58;12.35;;;;;;;;;;5136438;27;20075;-56
2022/12/22 06:49:13;;;;;;;17.38;12.15;;;;;;;;;;5135602;27;20518;-56
2022/12/22 06:51:39;;;;;;;17.95;11.77;;;;;;;;;;5132265;27;20043;-57
2022/12/22 06:54:05;;;;;;;16.30;10.35;;;;;;;;;;5132986;27;20080;-57
2022/12/22 06:56:31;;;;;;;18.35;10.70;;;;;;;;;;5134531;27;20129;-56
2022/12/22 06:58:57;;;;;;;20.48;12.65;;;;;;;;;;5132455;27;20117;-57
2022/12/22 07:01:23;;;;;;;15.82;9.73;;;;;;;;;;5132767;27;20052;-57
2022/12/22 07:03:49;;;;;;;10.85;7.80;;;;;;;;;;5131581;27;20075;-57
2022/12/22 07:06:17;;;;;;;12.90;8.13;;;;;;;;;;5132440;27;20404;-57
2022/12/22 07:08:44;;;;;;;12.30;7.60;;;;;;;;;;5132728;27;20142;-57
2022/12/22 07:11:10;;;;;;;10.57;7.35;;;;;;;;;;5131967;27;20537;-57
2022/12/22 07:13:36;;;;;;;20.65;10.57;;;;;;;;;;5135919;27;20093;-57
2022/12/22 07:16:03;;;;;;;18.17;11.35;;;;;;;;;;5134951;27;20684;-57
2022/12/22 07:18:33;;;;;;;18.08;10.25;;;;;;;;;;5133312;27;20130;-57
2022/12/22 07:21:00;;;;;;;16.30;10.18;;;;;;;;;;5133488;27;20096;-57
2022/12/22 07:23:26;;;;;;;13.18;7.60;;;;;;;;;;5136554;27;20427;-57
2022/12/22 07:25:52;;;;;;;13.57;8.85;;;;;;;;;;5130827;27;20039;-56
2022/12/22 07:28:18;;;;;;;14.63;9.30;;;;;;;;;;5134743;27;20065;-56
2022/12/22 07:30:44;;;;;;;17.85;10.10;;;;;;;;;;5135234;27;20586;-56
2022/12/22 07:33:10;;;;;;;17.83;9.98;;;;;;;;;;5130660;27;20045;-57
2022/12/22 07:35:36;;;;;;;14.80;8.70;;;;;;;;;;5131013;27;20046;-56
2022/12/22 07:38:02;;;;;;;14.70;8.75;;;;;;;;;;5134943;27;20043;-57
2022/12/22 07:40:28;;;;;;;13.88;8.93;;;;;;;;;;5132892;27;20046;-57
2022/12/22 07:42:58;;;;;;;15.32;9.77;;;;;;;;;;5133888;27;20096;-57
2022/12/22 07:45:24;;;;;;;17.10;10.40;;;;;;;;;;5135202;27;20043;-56
2022/12/22 07:47:50;;;;;;;17.27;9.98;;;;;;;;;;5129852;27;20043;-57
2022/12/22 07:50:23;;;;;;;14.27;8.77;;;;;;;;;;5134139;27;20752;-57
2022/12/22 07:52:50;;;;;;;11.82;7.30;;;;;;;;;;5130635;27;20054;-57
2022/12/22 07:55:16;;;;;;;11.73;7.78;;;;;;;;;;5130490;27;20752;-56
2022/12/22 07:57:42;;;;;;;11.07;6.97;;;;;;;;;;5133281;27;20125;-57
2022/12/22 08:00:08;;;;;;;11.00;6.47;;;;;;;;;;5135670;27;20042;-57
2022/12/22 08:02:35;;;;;;;12.32;7.57;;;;;;;;;;5134544;27;20049;-56
2022/12/22 08:05:01;;;;;;;13.00;8.18;;;;;;;;;;5133773;27;20603;-57
2022/12/22 08:07:27;;;;;;;13.18;6.93;;;;;;;;;;5136160;27;20066;-57
2022/12/22 08:09:53;;;;;;;13.75;8.43;;;;;;;;;;5132148;27;20600;-56
2022/12/22 08:12:19;;;;;;;15.48;8.30;;;;;;;;;;5132888;27;20062;-56
2022/12/22 08:14:45;;;;;;;11.93;7.15;;;;;;;;;;5132815;27;20061;-57
2022/12/22 08:17:13;;;;;;;14.15;7.70;;;;;;;;;;5132087;27;20125;-57
2022/12/22 08:19:40;;;;;;;12.57;8.20;;;;;;;;;;5130571;27;20046;-57
2022/12/22 08:22:06;;;;;;;11.82;7.57;;;;;;;;;;5133255;27;20534;-56
2022/12/22 08:24:32;;;;;;;12.45;7.35;;;;;;;;;;5134767;27;20050;-57
2022/12/22 08:27:00;;;;;;;8.65;5.90;;;;;;;;;;5137607;27;20063;-57
2022/12/22 08:29:41;;;;;;;14.52;9.23;;;;;;;;;;5134505;27;20329;-56
2022/12/22 08:32:07;;;;;;;13.77;9.35;;;;;;;;;;5141214;27;20035;-57
2022/12/22 08:34:33;;;;;;;11.85;7.55;;;;;;;;;;5131926;27;20039;-57
2022/12/22 08:37:00;;;;;;;12.57;6.63;;;;;;;;;;5134886;27;20067;-57
2022/12/22 08:39:28;;;;;;;10.88;6.60;;;;;;;;;;5133930;27;20111;-57
2022/12/22 08:41:54;;;;;;;8.15;5.55;;;;;;;;;;5130775;27;20046;-56
2022/12/22 08:44:22;;;;;;;7.68;5.25;;;;;;;;;;5126208;27;20050;-57
2022/12/22 08:46:48;;;;;;;6.95;4.65;;;;;;;;;;5134892;27;20039;-57
2022/12/22 08:49:14;;;;;;;6.97;5.03;;;;;;;;;;5131591;27;20049;-57
2022/12/22 08:51:40;;;;;;;9.75;6.75;;;;;;;;;;5135208;27;20695;-56
2022/12/22 08:54:06;;;;;;;7.68;5.85;;;;;;;;;;5139624;27;20039;-57
2022/12/22 08:56:32;;;;;;;8.82;6.22;;;;;;;;;;5133121;27;20694;-56
2022/12/22 08:58:58;;;;;;;8.95;5.82;;;;;;;;;;5135014;27;20158;-56
2022/12/22 09:01:24;;;;;;;6.70;4.75;;;;;;;;;;5135123;27;20047;-56
2022/12/22 09:03:50;;;;;;;6.55;5.03;;;;;;;;;;5132084;27;20561;-54
2022/12/22 09:06:17;;;;;;;9.35;4.82;;;;;;;;;;5137478;27;20047;-54
2022/12/22 09:08:43;;;;;;;7.80;4.65;;;;;;;;;;5136857;27;20104;-55
2022/12/22 09:11:09;;;;;;;7.72;5.45;;;;;;;;;;5129224;27;20132;-59
2022/12/22 09:13:35;;;;;;;8.43;6.05;;;;;;;;;;5147311;27;20401;-56
2022/12/22 09:16:08;;;;;;;6.60;5.07;;;;;;;;;;5142186;27;20491;-56
2022/12/22 09:18:33;;;;;;;;;;;;;;;;;;5133636;27;20529;-56
2022/12/22 09:20:59;;;;;;;8.50;6.30;;;;;;;;;;5128479;27;19965;-56
2022/12/22 09:23:26;;;;;;;9.52;6.53;;;;;;;;;;5132448;27;20051;-57
2022/12/22 09:25:52;;;;;;;8.43;5.72;;;;;;;;;;5120951;27;20390;-56
2022/12/22 09:28:18;;;;;;;10.75;6.60;;;;;;;;;;5140964;27;20042;-56
2022/12/22 09:30:50;;;;;;;9.07;5.72;;;;;;;;;;5130204;27;20031;-57
2022/12/22 09:33:16;;;;;;;8.32;5.75;;;;;;;;;;5129918;27;20035;-56
2022/12/22 09:35:42;;;;;;;5.10;4.55;;;;;;;;;;5134213;27;20481;-57
2022/12/22 09:38:08;;;;;;;6.88;5.78;;;;;;;;;;5139389;27;20053;-57
2022/12/22 09:40:35;;;;;;;6.35;5.05;;;;;;;;;;5142898;27;20154;-56
2022/12/22 09:43:01;;;;;;;10.98;5.43;;;;;;;;;;5132464;27;21214;-56
2022/12/22 09:45:28;;;;;;;7.72;5.55;;;;;;;;;;5139159;27;20053;-56
2022/12/22 09:47:54;;;;;;;6.57;4.95;;;;;;;;;;5130123;27;20047;-56
2022/12/22 09:50:22;;;;;;;7.10;4.50;;;;;;;;;;5134794;27;20042;-56
2022/12/22 09:53:00;;;;;;;8.23;5.45;;;;;;;;;;5132174;27;20092;-56
2022/12/22 09:55:26;;;;;;;7.18;5.60;;;;;;;;;;5128104;27;20039;-56
2022/12/22 09:57:54;;;;;;;8.15;6.13;;;;;;;;;;5129941;27;20111;-56
2022/12/22 10:00:24;;;;;;;8.93;5.63;;;;;;;;;;5134633;27;20042;-57
2022/12/22 10:03:04;;;;;;;8.18;5.68;;;;;;;;;;5143593;27;20047;-56
2022/12/22 10:05:37;;;;;;;9.10;5.57;;;;;;;;;;5137786;27;20042;-56
2022/12/22 10:08:09;;;;;;;8.45;5.82;;;;;;;;;;5132794;27;20120;-55
2022/12/22 10:10:35;;;;;;;10.75;6.00;;;;;;;;;;5129852;27;20658;-56
2022/12/22 10:13:01;;;;;;;9.15;5.40;;;;;;;;;;5140211;27;20066;-56
2022/12/22 10:15:38;;;;;;;7.72;5.20;;;;;;;;;;5133418;27;20035;-56
2022/12/22 10:18:16;;;;;;;8.20;5.97;;;;;;;;;;5135955;27;20039;-56
2022/12/22 10:20:44;;;;;;;10.45;6.03;;;;;;;;;;5133696;27;20072;-56
2022/12/22 10:23:29;;;;;;;12.55;7.20;;;;;;;;;;5131532;27;20043;-58
2022/12/22 10:25:58;;;;;;;9.35;6.72;;;;;;;;;;5140218;27;20038;-56
2022/12/22 10:28:26;;;;;;;11.20;6.53;;;;;;;;;;5132504;27;20043;-57
2022/12/22 10:31:10;;;;;;;10.30;6.38;;;;;;;;;;5126168;27;20047;-57
2022/12/22 10:33:38;;;;;;;10.45;6.05;;;;;;;;;;5129654;27;20047;-56
2022/12/22 10:36:04;;;;;;;9.07;4.95;;;;;;;;;;5125799;27;20047;-57
2022/12/22 10:38:35;;;;;;;11.88;6.60;;;;;;;;;;5128210;27;20062;-57
2022/12/22 10:41:03;;;;;;;11.07;5.13;;;;;;;;;;5126152;27;20047;-57
2022/12/22 10:43:34;;;;;;;14.15;4.80;;;;;;;;;;5127143;27;20433;-56
2022/12/22 10:46:02;;;;;;;10.00;4.60;;;;;;;;;;5129176;27;21288;-56
2022/12/22 10:48:29;;;;;;;8.57;4.93;;;;;;;;;;5129269;27;20054;-56
2022/12/22 10:50:55;;;;;;;7.38;4.47;;;;;;;;;;5127156;27;20114;-56
2022/12/22 10:53:21;;;;;;;6.75;4.43;;;;;;;;;;5128100;27;20039;-56
2022/12/22 10:56:04;;;;;;;9.00;4.25;;;;;;;;;;5127562;27;20544;-57
2022/12/22 10:58:30;;;;;;;6.75;3.78;;;;;;;;;;5127340;27;20417;-56
2022/12/22 11:01:01;;;;;;;7.60;3.17;;;;;;;;;;5128942;27;20078;-56
2022/12/22 11:03:31;;;;;;;5.53;2.83;;;;;;;;;;5142444;27;20054;-56
2022/12/22 11:05:58;;;;;;;4.28;2.47;;;;;;;;;;5147569;27;20087;-56
2022/12/22 11:08:25;;;;;;;4.18;2.38;;;;;;;;;;5146815;27;20042;-56
2022/12/22 11:10:53;;;;;;;8.13;3.47;;;;;;;;;;5147139;27;20045;-56
2022/12/22 11:13:22;;;;;;;4.13;2.25;;;;;;;;;;5148035;27;20050;-56
2022/12/22 11:15:52;;;;;;;9.13;2.72;;;;;;;;;;5148242;27;20165;-56
2022/12/22 11:18:23;;;;;;;8.93;2.75;;;;;;;;;;5147782;27;20042;-56
2022/12/22 11:20:54;;;;;;;4.45;2.88;;;;;;;;;;5147100;27;20102;-56
2022/12/22 11:23:30;;;;;;;7.60;2.80;;;;;;;;;;5146534;27;20080;-55
2022/12/22 11:26:11;;;;;;;11.25;3.10;;;;;;;;;;5145416;27;20283;-56
2022/12/22 11:28:40;;;;;;;5.47;2.85;;;;;;;;;;5146901;27;20294;-56
2022/12/22 11:31:17;;;;;;;6.80;2.55;;;;;;;;;;5146721;27;20039;-56
2022/12/22 11:34:02;;;;;;;8.65;2.85;;;;;;;;;;5146419;27;20070;-56
2022/12/22 11:36:33;;;;;;;7.78;2.83;;;;;;;;;;5147134;27;20129;-56
2022/12/22 11:39:14;;;;;;;7.88;3.40;;;;;;;;;;5147372;27;20050;-56
2022/12/22 11:41:41;;;;;;;8.32;3.83;;;;;;;;;;5147729;27;20053;-56
2022/12/22 11:44:13;;;;;;;5.20;2.65;;;;;;;;;;5145936;27;20074;-56
2022/12/22 11:46:45;;;;;;;7.07;2.40;;;;;;;;;;5132181;27;20065;-56
2022/12/22 11:49:11;;;;;;;6.63;2.58;;;;;;;;;;5137708;27;20412;-58
2022/12/22 11:51:55;;;;;;;4.43;2.75;;;;;;;;;;5130568;27;20533;-56
2022/12/22 11:54:39;;;;;;;7.47;3.35;;;;;;;;;;5125219;27;20418;-56
2022/12/22 11:57:18;;;;;;;14.38;3.45;;;;;;;;;;5127060;27;20070;-56
2022/12/22 12:00:02;;;;;;;5.47;3.00;;;;;;;;;;5127450;27;20119;-56
2022/12/22 12:02:43;;;;;;;9.55;3.45;;;;;;;;;;5128286;27;20241;-56
2022/12/22 12:05:24;;;;;;;6.35;2.83;;;;;;;;;;5131557;27;20049;-56
2022/12/22 12:07:56;;;;;;;5.82;3.22;;;;;;;;;;5125652;27;20043;-56
2022/12/22 12:10:22;;;;;;;;;;;;;;;;;;5126506;27;20494;-56
2022/12/22 12:12:59;;;;;;;4.85;2.97;;;;;;;;;;5129205;27;19929;-55
2022/12/22 12:15:40;;;;;;;5.97;2.60;;;;;;;;;;5127078;27;20050;-55
2022/12/22 12:18:25;;;;;;;6.25;3.35;;;;;;;;;;5134536;27;20063;-56
2022/12/22 12:20:55;;;;;;;6.55;2.97;;;;;;;;;;5130776;27;20042;-56
2022/12/22 12:23:36;;;;;;;8.57;3.50;;;;;;;;;;5126069;27;20404;-56
2022/12/22 12:26:07;;;;;;;9.73;3.00;;;;;;;;;;5126100;27;20035;-56
2022/12/22 12:28:38;;;;;;;9.38;3.15;;;;;;;;;;5125252;27;20043;-56
2022/12/22 12:31:05;;;;;;;8.13;3.05;;;;;;;;;;5126211;27;20043;-56
2022/12/22 12:33:42;;;;;;;6.32;2.92;;;;;;;;;;5125896;27;20043;-56
2022/12/22 12:36:12;;;;;;;13.18;3.63;;;;;;;;;;5125527;27;20514;-56
2022/12/22 12:38:54;;;;;;;7.18;3.22;;;;;;;;;;5126334;27;20047;-56
2022/12/22 12:41:25;;;;;;;12.85;3.42;;;;;;;;;;5128114;27;20105;-56
2022/12/22 12:43:53;;;;;;;11.48;3.47;;;;;;;;;;5125945;27;20047;-56
2022/12/22 12:46:38;;;;;;;7.75;2.83;;;;;;;;;;5125784;27;20622;-56
2022/12/22 12:49:04;;;;;;;6.60;2.72;;;;;;;;;;5125079;27;20035;-56
2022/12/22 12:51:45;;;;;;;8.40;3.25;;;;;;;;;;5125595;27;20054;-56
2022/12/22 12:54:35;;;;;;;5.78;3.05;;;;;;;;;;5130429;27;20042;-56
2022/12/22 12:57:01;;;;;;;7.97;2.97;;;;;;;;;;5135712;27;20046;-57
2022/12/22 12:59:42;;;;;;;8.20;3.10;;;;;;;;;;5123623;27;20043;-56
2022/12/22 13:02:26;;;;;;;6.87;2.43;;;;;;;;;;5126959;27;20167;-56
2022/12/22 13:05:02;;;;;;;8.32;2.80;;;;;;;;;;5133915;27;20414;-56
2022/12/22 13:07:47;;;;;;;5.97;3.35;;;;;;;;;;5129349;27;20080;-56
2022/12/22 13:10:20;;;;;;;9.68;2.63;;;;;;;;;;5129955;27;20188;-57
2022/12/22 13:12:50;;;;;;;5.57;2.83;;;;;;;;;;5130722;27;20582;-56
2022/12/22 13:15:25;;;;;;;7.68;2.75;;;;;;;;;;5135762;27;20552;-56
2022/12/22 13:17:51;;;;;;;8.45;2.78;;;;;;;;;;5127815;27;20475;-56
2022/12/22 13:20:21;;;;;;;7.53;3.38;;;;;;;;;;5125393;27;20510;-56
2022/12/22 13:22:51;;;;;;;12.65;3.78;;;;;;;;;;5134130;27;20039;-56
2022/12/22 13:25:18;;;;;;;8.70;2.78;;;;;;;;;;5134675;27;20092;-56
2022/12/22 13:27:44;;;;;;;11.55;3.33;;;;;;;;;;5130176;27;20081;-56
2022/12/22 13:30:15;;;;;;;9.80;3.38;;;;;;;;;;5129013;27;20047;-56
2022/12/22 13:32:42;;;;;;;10.02;3.25;;;;;;;;;;5134971;27;20042;-57
2022/12/22 13:35:29;;;;;;;4.63;2.53;;;;;;;;;;5131585;27;20035;-56
2022/12/22 13:37:56;;;;;;;5.80;2.63;;;;;;;;;;5131541;27;20050;-56
2022/12/22 13:40:23;;;;;;;9.70;3.28;;;;;;;;;;5140936;27;20386;-56
2022/12/22 13:42:56;;;;;;;8.05;3.05;;;;;;;;;;5137220;27;20043;-56
2022/12/22 13:45:22;;;;;;;9.85;2.70;;;;;;;;;;5136044;27;20051;-56
2022/12/22 13:47:49;;;;;;;12.65;3.42;;;;;;;;;;5128312;27;20039;-56
2022/12/22 13:50:44;;;;;;;9.02;2.92;;;;;;;;;;5133409;27;20075;-56
2022/12/22 13:53:14;;;;;;;8.63;3.42;;;;;;;;;;5119047;27;20043;-56
2022/12/22 13:55:41;;;;;;;7.00;2.88;;;;;;;;;;5147074;27;20038;-56
2022/12/22 13:58:14;;;;;;;5.95;2.95;;;;;;;;;;5142943;27;20493;-58
2022/12/22 14:00:40;;;;;;;8.18;2.45;;;;;;;;;;5148126;27;20096;-56
2022/12/22 14:03:13;;;;;;;7.55;2.38;;;;;;;;;;5129358;27;20027;-54
2022/12/22 14:05:39;;;;;;;7.35;2.58;;;;;;;;;;5133620;27;20047;-56
2022/12/22 14:08:06;;;;;;;9.30;3.10;;;;;;;;;;5129269;27;20043;-56
2022/12/22 14:10:33;;;;;;;5.82;2.55;;;;;;;;;;5140991;27;20118;-56
2022/12/22 14:13:01;;;;;;;9.45;3.15;;;;;;;;;;5148768;27;20053;-56
2022/12/22 14:15:27;;;;;;;9.88;3.30;;;;;;;;;;5149626;27;20042;-56
2022/12/22 14:17:53;;;;;;;4.82;2.80;;;;;;;;;;5149424;27;20055;-56
2022/12/22 14:20:24;;;;;;;5.40;3.00;;;;;;;;;;5130365;27;20054;-56
2022/12/22 14:22:53;;;;;;;6.65;2.95;;;;;;;;;;5149581;27;20542;-56
2022/12/22 14:25:22;;;;;;;8.82;3.45;;;;;;;;;;5149229;27;20046;-56
2022/12/22 14:27:51;;;;;;;6.97;2.85;;;;;;;;;;5147153;27;20054;-56
2022/12/22 14:30:22;;;;;;;8.27;2.35;;;;;;;;;;5147611;27;20046;-56
2022/12/22 14:32:49;;;;;;;5.00;2.72;;;;;;;;;;5147531;27;20039;-55
2022/12/22 14:35:22;;;;;;;6.45;2.35;;;;;;;;;;5146999;27;20074;-56
2022/12/22 14:37:53;;;;;;;5.35;2.22;;;;;;;;;;5147807;27;20047;-56
2022/12/22 14:40:29;;;;;;;5.20;1.98;;;;;;;;;;5147168;27;20141;-56
2022/12/22 14:42:56;;;;;;;10.27;2.88;;;;;;;;;;5147310;27;20046;-56
2022/12/22 14:45:22;;;;;;;6.93;2.65;;;;;;;;;;5148856;27;20074;-55
2022/12/22 14:47:49;;;;;;;4.20;1.80;;;;;;;;;;5149409;27;20053;-56
2022/12/22 14:50:19;;;;;;;6.45;2.75;;;;;;;;;;5148112;27;20405;-55
2022/12/22 14:52:49;;;;;;;8.90;2.20;;;;;;;;;;5149042;27;20042;-55
2022/12/22 14:55:24;;;;;;;4.43;1.90;;;;;;;;;;5147722;27;20547;-56
2022/12/22 14:58:13;;;;;;;3.67;1.70;;;;;;;;;;5148750;27;20043;-56
2022/12/22 15:00:44;;;;;;;2.42;1.25;;;;;;;;;;5134953;27;20055;-55
2022/12/22 15:03:29;;;;;;;5.57;1.23;;;;;;;;;;5147641;27;20261;-56
2022/12/22 15:05:55;;;;;;;8.82;2.05;;;;;;;;;;5148224;27;20035;-55
2022/12/22 15:08:36;;;;;;;7.28;1.33;;;;;;;;;;5125555;27;20067;-56
2022/12/22 15:11:02;;;;;;;4.05;1.60;;;;;;;;;;5126813;27;20070;-56
2022/12/22 15:13:29;;;;;;;2.35;1.00;;;;;;;;;;5126997;27;20549;-56
2022/12/22 15:15:55;;;;;;;2.47;1.40;;;;;;;;;;5127695;27;20039;-56
2022/12/22 15:18:25;;;;;;;7.28;1.95;;;;;;;;;;5136477;27;20351;-57
2022/12/22 15:20:51;;;;;;;4.78;1.80;;;;;;;;;;5127242;27;20252;-56
2022/12/22 15:23:17;;;;;;;4.18;2.03;;;;;;;;;;5140988;27;20466;-56
2022/12/22 15:25:43;;;;;;;3.90;1.80;;;;;;;;;;5144427;27;20043;-56
2022/12/22 15:28:09;;;;;;;2.28;1.35;;;;;;;;;;5135826;27;20051;-56
2022/12/22 15:30:35;;;;;;;2.70;1.30;;;;;;;;;;5126728;27;20092;-57
2022/12/22 15:33:01;;;;;;;2.38;1.35;;;;;;;;;;5127052;27;20039;-56
2022/12/22 15:35:27;;;;;;;1.75;1.15;;;;;;;;;;5136991;27;20065;-56
2022/12/22 15:37:53;;;;;;;1.75;1.40;;;;;;;;;;5147083;27;20126;-56
2022/12/22 15:40:20;;;;;;;6.38;1.48;;;;;;;;;;5147252;27;20474;-56
2022/12/22 15:42:46;;;;;;;5.10;1.90;;;;;;;;;;5139415;27;20060;-56
2022/12/22 15:45:12;;;;;;;4.85;1.70;;;;;;;;;;5133556;27;20043;-56
2022/12/22 15:47:39;;;;;;;1.42;1.33;;;;;;;;;;5131402;27;20068;-56
2022/12/22 15:50:07;;;;;;;8.13;2.40;;;;;;;;;;5130500;27;20055;-56
2022/12/22 15:52:33;;;;;;;4.18;1.83;;;;;;;;;;5132973;27;20045;-56
2022/12/22 15:54:59;;;;;;;5.68;2.22;;;;;;;;;;5128765;27;20082;-57
2022/12/22 15:57:25;;;;;;;6.00;2.25;;;;;;;;;;5141899;27;20073;-56
2022/12/22 15:59:51;;;;;;;5.30;2.00;;;;;;;;;;5141041;27;20066;-56
2022/12/22 16:02:17;;;;;;;3.35;2.03;;;;;;;;;;5126957;27;20461;-57
2022/12/22 16:04:43;;;;;;;5.70;2.05;;;;;;;;;;5125708;27;20043;-56
2022/12/22 16:07:10;;;;;;;6.43;3.08;;;;;;;;;;5127971;27;20043;-56
2022/12/22 16:09:40;;;;;;;7.22;3.63;;;;;;;;;;5136620;27;20457;-56
2022/12/22 16:12:12;;;;;;;9.00;4.00;;;;;;;;;;5140252;27;20134;-56
2022/12/22 16:14:38;;;;;;;6.00;3.95;;;;;;;;;;5140183;27;20051;-57
2022/12/22 16:17:04;;;;;;;10.00;5.70;;;;;;;;;;5130451;27;20039;-57
2022/12/22 16:19:30;;;;;;;6.68;4.63;;;;;;;;;;5136429;27;20393;-57
2022/12/22 16:21:56;;;;;;;6.80;4.53;;;;;;;;;;5131153;27;20072;-57
2022/12/22 16:24:22;;;;;;;6.47;4.63;;;;;;;;;;5129993;27;20130;-57
2022/12/22 16:26:48;;;;;;;6.20;4.47;;;;;;;;;;5138133;27;20053;-57
2022/12/22 16:29:15;;;;;;;7.93;4.60;;;;;;;;;;5146181;27;20086;-56
2022/12/22 16:31:41;;;;;;;6.00;4.20;;;;;;;;;;5143587;27;20570;-57
2022/12/22 16:34:09;;;;;;;6.70;4.18;;;;;;;;;;5134764;27;20043;-57
2022/12/22 16:36:35;;;;;;;3.90;3.60;;;;;;;;;;5125972;27;20047;-57
2022/12/22 16:39:01;;;;;;;3.58;3.17;;;;;;;;;;5133223;27;20035;-56
2022/12/22 16:41:28;;;;;;;4.10;3.22;;;;;;;;;;5135433;27;20130;-57
2022/12/22 16:43:54;;;;;;;3.67;2.53;;;;;;;;;;5142695;27;20099;-57
2022/12/22 16:46:21;;;;;;;4.72;2.75;;;;;;;;;;5139770;27;20051;-57
2022/12/22 16:48:59;;;;;;;3.88;3.10;;;;;;;;;;5137164;27;20039;-57
2022/12/22 16:51:28;;;;;;;4.43;3.47;;;;;;;;;;5142471;27;20031;-57
2022/12/22 16:53:54;;;;;;;5.00;3.97;;;;;;;;;;5141842;27;20043;-57
2022/12/22 16:56:22;;;;;;;9.82;4.93;;;;;;;;;;5129109;27;20505;-56
2022/12/22 16:58:48;;;;;;;9.82;5.70;;;;;;;;;;5128823;27;20130;-57
2022/12/22 17:01:29;;;;;;;9.13;5.70;;;;;;;;;;5128099;27;20066;-56
2022/12/22 17:03:56;;;;;;;8.75;6.80;;;;;;;;;;5133963;27;20473;-57
2022/12/22 17:06:22;;;;;;;10.38;7.00;;;;;;;;;;5137931;27;20043;-56
2022/12/22 17:08:48;;;;;;;7.85;6.50;;;;;;;;;;5135784;27;20079;-56
2022/12/22 17:11:20;;;;;;;7.95;7.15;;;;;;;;;;5139382;27;20043;-56
2022/12/22 17:13:46;;;;;;;10.02;8.07;;;;;;;;;;5131870;27;20042;-57
2022/12/22 17:16:20;;;;;;;10.65;7.65;;;;;;;;;;5128123;27;20042;-56
2022/12/22 17:18:46;;;;;;;13.23;10.02;;;;;;;;;;5129608;27;20177;-56
2022/12/22 17:21:13;;;;;;;18.40;11.43;;;;;;;;;;5132774;27;20457;-56
2022/12/22 17:23:44;;;;;;;14.52;12.63;;;;;;;;;;5127967;27;20041;-56
2022/12/22 17:26:13;;;;;;;18.35;14.50;;;;;;;;;;5128217;27;20136;-56
2022/12/22 17:28:39;;;;;;;19.77;15.63;;;;;;;;;;5135982;27;20070;-56
2022/12/22 17:31:05;;;;;;;22.60;18.48;;;;;;;;;;5128655;27;20051;-56
2022/12/22 17:33:31;;;;;;;23.52;16.75;;;;;;;;;;5141326;27;20042;-56
2022/12/22 17:35:58;;;;;;;20.35;16.20;;;;;;;;;;5137369;27;20043;-56
2022/12/22 17:38:26;;;;;;;18.90;15.77;;;;;;;;;;5127587;27;20051;-56
2022/12/22 17:40:52;;;;;;;17.38;15.55;;;;;;;;;;5136226;27;20053;-56
2022/12/22 17:43:19;;;;;;;21.88;17.95;;;;;;;;;;5132492;27;20038;-57
2022/12/22 17:45:46;;;;;;;18.42;16.20;;;;;;;;;;5139861;27;22152;-56
2022/12/22 17:48:13;;;;;;;23.10;18.40;;;;;;;;;;5139517;27;20133;-56
2022/12/22 17:50:39;;;;;;;21.85;18.92;;;;;;;;;;5133797;27;20485;-56
2022/12/22 17:53:06;;;;;;;20.83;16.95;;;;;;;;;;5129287;27;20049;-56
2022/12/22 17:55:32;;;;;;;21.92;17.38;;;;;;;;;;5127034;27;20362;-56
2022/12/22 17:57:59;;;;;;;18.08;15.23;;;;;;;;;;5131328;27;20405;-56
2022/12/22 18:00:26;;;;;;;16.77;13.98;;;;;;;;;;5131551;27;20043;-56
2022/12/22 18:02:52;;;;;;;17.05;13.63;;;;;;;;;;5136754;27;20035;-56
2022/12/22 18:05:20;;;;;;;16.52;14.23;;;;;;;;;;5128373;27;20048;-57
2022/12/22 18:07:47;;;;;;;15.15;12.80;;;;;;;;;;5132814;27;20171;-56
2022/12/22 18:10:30;;;;;;;14.20;12.68;;;;;;;;;;5141101;27;20078;-56
2022/12/22 18:12:58;;;;;;;14.68;12.98;;;;;;;;;;5133641;27;20082;-56
2022/12/22 18:15:25;;;;;;;16.85;13.48;;;;;;;;;;5139049;27;20046;-56
2022/12/22 18:17:51;;;;;;;13.93;12.13;;;;;;;;;;5139299;27;20077;-56
2022/12/22 18:20:21;;;;;;;15.00;12.75;;;;;;;;;;5130432;27;20091;-56
2022/12/22 18:22:50;;;;;;;14.35;11.18;;;;;;;;;;5142199;27;20520;-57